地図

経路データ

SID SEASON NUMBER BASIN SUBBASIN NAME ISO_TIME NATURE LAT LON WMO_WIND WMO_PRES WMO_AGENCY TRACK_TYPE DIST2LAND LANDFALL IFLAG USA_AGENCY USA_ATCF_ID USA_LAT USA_LON USA_RECORD USA_STATUS USA_WIND USA_PRES USA_SSHS USA_R34_NE USA_R34_SE USA_R34_SW USA_R34_NW USA_R50_NE USA_R50_SE USA_R50_SW USA_R50_NW USA_R64_NE USA_R64_SE USA_R64_SW USA_R64_NW USA_POCI USA_ROCI USA_RMW USA_EYE TOKYO_LAT TOKYO_LON TOKYO_GRADE TOKYO_WIND TOKYO_PRES TOKYO_R50_DIR TOKYO_R50_LONG TOKYO_R50_SHORT TOKYO_R30_DIR TOKYO_R30_LONG TOKYO_R30_SHORT TOKYO_LAND CMA_LAT CMA_LON CMA_CAT CMA_WIND CMA_PRES HKO_LAT HKO_LON HKO_CAT HKO_WIND HKO_PRES NEWDELHI_LAT NEWDELHI_LON NEWDELHI_GRADE NEWDELHI_WIND NEWDELHI_PRES NEWDELHI_CI NEWDELHI_DP NEWDELHI_POCI REUNION_LAT REUNION_LON REUNION_TYPE REUNION_WIND REUNION_PRES REUNION_TNUM REUNION_CI REUNION_RMW REUNION_R34_NE REUNION_R34_SE REUNION_R34_SW REUNION_R34_NW REUNION_R50_NE REUNION_R50_SE REUNION_R50_SW REUNION_R50_NW REUNION_R64_NE REUNION_R64_SE REUNION_R64_SW REUNION_R64_NW BOM_LAT BOM_LON BOM_TYPE BOM_WIND BOM_PRES BOM_TNUM BOM_CI BOM_RMW BOM_R34_NE BOM_R34_SE BOM_R34_SW BOM_R34_NW BOM_R50_NE BOM_R50_SE BOM_R50_SW BOM_R50_NW BOM_R64_NE BOM_R64_SE BOM_R64_SW BOM_R64_NW BOM_ROCI BOM_POCI BOM_EYE BOM_POS_METHOD BOM_PRES_METHOD NADI_LAT NADI_LON NADI_CAT NADI_WIND NADI_PRES WELLINGTON_LAT WELLINGTON_LON WELLINGTON_WIND WELLINGTON_PRES DS824_LAT DS824_LON DS824_STAGE DS824_WIND DS824_PRES TD9636_LAT TD9636_LON TD9636_STAGE TD9636_WIND TD9636_PRES TD9635_LAT TD9635_LON TD9635_WIND TD9635_PRES TD9635_ROCI NEUMANN_LAT NEUMANN_LON NEUMANN_CLASS NEUMANN_WIND NEUMANN_PRES MLC_LAT MLC_LON MLC_CLASS MLC_WIND MLC_PRES USA_GUST BOM_GUST BOM_GUST_PER REUNION_GUST REUNION_GUST_PER USA_SEAHGT USA_SEARAD_NE USA_SEARAD_SE USA_SEARAD_SW USA_SEARAD_NW STORM_SPEED STORM_DIR
1993096N08148 1993 24 WP MM NOT_NAMED 1993-04-06 00:00:00 NR 7.60000 147.800 main 1087 1087 O_____________ jtwc_wp WP031993 7.60000 147.800 20 -1 5 281
1993096N08148 1993 24 WP MM NOT_NAMED 1993-04-06 03:00:00 NR 7.64754 147.540 main 1087 1087 P_____________ WP031993 7.64754 147.540 20 -1 5 281
1993096N08148 1993 24 WP MM NOT_NAMED 1993-04-06 06:00:00 NR 7.70000 147.300 main 1098 1098 O_____________ jtwc_wp WP031993 7.70000 147.300 20 -1 5 284
1993096N08148 1993 24 WP MM NOT_NAMED 1993-04-06 09:00:00 NR 7.75748 147.092 main 1109 1109 P_____________ WP031993 7.75748 147.092 20 -1 4 284
1993096N08148 1993 24 WP MM NOT_NAMED 1993-04-06 12:00:00 NR 7.80000 146.900 main 1109 1109 O_____________ jtwc_wp WP031993 7.80000 146.900 20 -1 4 276
1993096N08148 1993 24 WP MM NOT_NAMED 1993-04-06 15:00:00 NR 7.79999 146.700 main 1109 1109 P_____________ WP031993 7.79999 146.700 20 -1 4 270
1993096N08148 1993 24 WP MM NOT_NAMED 1993-04-06 18:00:00 NR 7.80000 146.500 main 1109 1109 O_____________ jtwc_wp WP031993 7.80000 146.500 20 -1 4 277
1993096N08148 1993 24 WP MM NOT_NAMED 1993-04-06 21:00:00 NR 7.84998 146.308 main 1109 1109 P_____________ WP031993 7.84998 146.308 20 -1 4 284
1993096N08148 1993 24 WP MM NOT_NAMED 1993-04-07 00:00:00 NR 7.90000 146.100 main 1121 1121 O_____________ jtwc_wp WP031993 7.90000 146.100 20 -1 4 277
1993096N08148 1993 24 WP MM NOT_NAMED 1993-04-07 03:00:00 NR 7.90748 145.865 main 1123 1123 P_____________ WP031993 7.90748 145.865 20 -1 5 270
1993096N08148 1993 24 WP MM NOT_NAMED 1993-04-07 06:00:00 NR 7.90000 145.600 main 1126 1126 O_____________ jtwc_wp WP031993 7.90000 145.600 20 -1 6 269
1993096N08148 1993 24 WP MM NOT_NAMED 1993-04-07 09:00:00 NR 7.89999 145.308 main 1129 1129 P_____________ WP031993 7.89999 145.308 20 -1 6 270
1993096N08148 1993 24 WP MM NOT_NAMED 1993-04-07 12:00:00 NR 7.90000 145.000 main 1134 1134 O_____________ jtwc_wp WP031993 7.90000 145.000 20 -1 6 270
1993096N08148 1993 24 WP MM NOT_NAMED 1993-04-07 15:00:00 NR 7.89996 144.708 main 1140 1140 P_____________ WP031993 7.89996 144.708 20 -1 6 270
1993096N08148 1993 24 WP MM NOT_NAMED 1993-04-07 18:00:00 NR 7.90000 144.400 main 1146 1146 O_____________ jtwc_wp WP031993 7.90000 144.400 20 -1 6 270
1993096N08148 1993 24 WP MM NOT_NAMED 1993-04-07 21:00:00 NR 7.89997 144.065 main 1154 1154 P_____________ WP031993 7.89997 144.065 20 -1 7 270
1993096N08148 1993 24 WP MM NOT_NAMED 1993-04-08 00:00:00 NR 7.90000 143.700 main 1165 1165 O_____________ jtwc_wp WP031993 7.90000 143.700 20 -1 8 270
1993096N08148 1993 24 WP MM NOT_NAMED 1993-04-08 03:00:00 NR 7.89998 143.307 main 1178 1178 P_____________ WP031993 7.89998 143.307 20 -1 8 270
1993096N08148 1993 24 WP MM NOT_NAMED 1993-04-08 06:00:00 NR 7.90000 142.900 main 1182 1165 O_____________ jtwc_wp WP031993 7.90000 142.900 20 -1 8 271
1993096N08148 1993 24 WP MM NOT_NAMED 1993-04-08 09:00:00 NR 7.90746 142.500 main 1165 1149 P_____________ WP031993 7.90746 142.500 20 -1 8 270
1993096N08148 1993 24 WP MM NOT_NAMED 1993-04-08 12:00:00 NR 7.90000 142.100 main 1149 1133 O_____________ jtwc_wp WP031993 7.90000 142.100 20 -1 8 266
1993096N08148 1993 24 WP MM NOT_NAMED 1993-04-08 15:00:00 NR 7.85748 141.692 main 1133 1108 P_____________ WP031993 7.85748 141.692 20 -1 8 263
1993096N08148 1993 24 WP MM NOT_NAMED 1993-04-08 18:00:00 NR 7.80000 141.300 main 1108 1098 O_____________ jtwc_wp WP031993 7.80000 141.300 20 -1 7 262
1993096N08148 1993 24 WP MM NOT_NAMED 1993-04-08 21:00:00 NR 7.74993 140.950 main 1087 1075 P_____________ WP031993 7.74993 140.950 20 -1 7 262
1993096N08148 1993 24 WP MM NOT_NAMED 1993-04-09 00:00:00 NR 7.70000 140.600 main 1075 1065 O_____________ jtwc_wp WP031993 7.70000 140.600 20 -1 7 262
1993096N08148 1993 24 WP MM NOT_NAMED 1993-04-09 03:00:00 NR 7.64998 140.208 main 1054 1036 P_____________ WP031993 7.64998 140.208 20 -1 8 263
1993096N08148 1993 24 WP MM NOT_NAMED 1993-04-09 06:00:00 NR 7.60000 139.800 main 1036 1018 O_____________ jtwc_wp WP031993 7.60000 139.800 20 -1 8 263
1993096N08148 1993 24 WP MM NOT_NAMED 1993-04-09 09:00:00 NR 7.55744 139.408 main 1018 991 P_____________ WP031993 7.55744 139.408 20 -1 8 263
1993096N08148 1993 24 WP MM NOT_NAMED 1993-04-09 12:00:00 NR 7.50000 139.000 main 991 966 O_____________ jtwc_wp WP031993 7.50000 139.000 20 -1 9 260
1993096N08148 1993 24 WP MM NOT_NAMED 1993-04-09 15:00:00 NR 7.40000 138.550 main 966 938 P_____________ WP031993 7.40000 138.550 20 -1 9 257
1993096N08148 1993 24 WP MM NOT_NAMED 1993-04-09 18:00:00 NR 7.30000 138.100 main 938 915 O_____________ jtwc_wp WP031993 7.30000 138.100 20 -1 9 259
1993096N08148 1993 24 WP MM NOT_NAMED 1993-04-09 21:00:00 NR 7.24242 137.700 main 915 905 P_____________ WP031993 7.24242 137.700 20 -1 8 263
1993096N08148 1993 24 WP MM NOT_NAMED 1993-04-10 00:00:00 NR 7.20000 137.300 main 905 896 O_____________ jtwc_wp WP031993 7.20000 137.300 20 -1 8 264
1993096N08148 1993 24 WP MM NOT_NAMED 1993-04-10 03:00:00 NR 7.15748 136.858 main 896 878 P_____________ WP031993 7.15748 136.858 20 -1 9 264
1993096N08148 1993 24 WP MM NOT_NAMED 1993-04-10 06:00:00 NR 7.10000 136.400 main 878 864 O_____________ jtwc_wp WP031993 7.10000 136.400 20 -1 9 260
1993096N08148 1993 24 WP MM NOT_NAMED 1993-04-10 09:00:00 NR 6.99998 135.942 main 863 851 P_____________ WP031993 6.99998 135.942 20 -1 9 257
1993096N08148 1993 24 WP MM NOT_NAMED 1993-04-10 12:00:00 NR 6.90000 135.500 main 851 839 O_____________ jtwc_wp WP031993 6.90000 135.500 20 -1 9 259
1993096N08148 1993 24 WP MM NOT_NAMED 1993-04-10 15:00:00 NR 6.84243 135.100 main 839 821 P_____________ WP031993 6.84243 135.100 20 -1 8 263
1993096N08148 1993 24 WP MM NOT_NAMED 1993-04-10 18:00:00 NR 6.80000 134.700 main 821 779 O_____________ jtwc_wp WP031993 6.80000 134.700 20 -1 9 263
1993096N08148 1993 24 WP MM NOT_NAMED 1993-04-10 21:00:00 NR 6.74250 134.250 main 779 735 P_____________ WP031993 6.74250 134.250 20 -1 9 264
1993096N08148 1993 24 WP MM NOT_NAMED 1993-04-11 00:00:00 NR 6.70000 133.800 main 735 702 O_____________ jtwc_wp WP031993 6.70000 133.800 20 -1 9 267
1993096N08148 1993 24 WP MM NOT_NAMED 1993-04-11 03:00:00 NR 6.69245 133.393 main 702 670 P_____________ WP031993 6.69245 133.393 22 -1 8 270
1993096N08148 1993 24 WP MM NOT_NAMED 1993-04-11 06:00:00 NR 6.70000 133.000 main 670 639 O_____________ jtwc_wp WP031993 6.70000 133.000 25 -1 8 271
1993096N08148 1993 24 WP MM NOT_NAMED 1993-04-11 09:00:00 NR 6.69997 132.600 main 639 610 P_____________ WP031993 6.69997 132.600 25 -1 8 270
1993096N08148 1993 24 WP MM NOT_NAMED 1993-04-11 12:00:00 NR 6.70000 132.200 main 610 578 O_____________ jtwc_wp WP031993 6.70000 132.200 25 -1 8 270
1993096N08148 1993 24 WP MM NOT_NAMED 1993-04-11 15:00:00 NR 6.69995 131.807 main 578 534 P_____________ WP031993 6.69995 131.807 25 -1 8 270
1993096N08148 1993 24 WP MM NOT_NAMED 1993-04-11 18:00:00 NR 6.70000 131.400 main 534 490 O_____________ jtwc_wp WP031993 6.70000 131.400 25 -1 8 270
1993096N08148 1993 24 WP MM NOT_NAMED 1993-04-11 21:00:00 NR 6.69998 130.958 main 490 436 P_____________ WP031993 6.69998 130.958 25 -1 9 270
1993096N08148 1993 24 WP MM NOT_NAMED 1993-04-12 00:00:00 NR 6.70000 130.500 main 436 392 O_____________ jtwc_wp WP031993 6.70000 130.500 25 -1 9 270
1993096N08148 1993 24 WP MM NOT_NAMED 1993-04-12 03:00:00 NR 6.69998 130.043 main 381 338 P_____________ WP031993 6.69998 130.043 25 -1 9 270
1993096N08148 1993 24 WP MM NOT_NAMED 1993-04-12 06:00:00 NR 6.70000 129.600 main 338 294 O_____________ jtwc_wp WP031993 6.70000 129.600 25 -1 8 270
1993096N08148 1993 24 WP MM NOT_NAMED 1993-04-12 09:00:00 NR 6.69995 129.193 main 294 252 P_____________ WP031993 6.69995 129.193 25 -1 8 270
1993096N08148 1993 24 WP MM NOT_NAMED 1993-04-12 12:00:00 NR 6.70000 128.800 main 252 209 O_____________ jtwc_wp WP031993 6.70000 128.800 25 -1 8 271
1993096N08148 1993 24 WP MM NOT_NAMED 1993-04-12 15:00:00 NR 6.70747 128.400 main 209 168 P_____________ WP031993 6.70747 128.400 25 -1 8 270
1993096N08148 1993 24 WP MM NOT_NAMED 1993-04-12 18:00:00 NR 6.70000 128.000 main 168 126 O_____________ jtwc_wp WP031993 6.70000 128.000 25 -1 8 267
1993096N08148 1993 24 WP MM NOT_NAMED 1993-04-12 21:00:00 NR 6.66498 127.593 main 126 89 P_____________ WP031993 6.66498 127.593 25 -1 8 263
1993096N08148 1993 24 WP MM NOT_NAMED 1993-04-13 00:00:00 NR 6.60000 127.200 main 89 64 O_____________ jtwc_wp WP031993 6.60000 127.200 25 -1 8 257
1993096N08148 1993 24 WP MM NOT_NAMED 1993-04-13 03:00:00 NR 6.49246 126.842 main 55 33 P_____________ WP031993 6.49246 126.842 25 -1 7 254
1993096N08148 1993 24 WP MM NOT_NAMED 1993-04-13 06:00:00 NR 6.40000 126.500 main 33 0 O_____________ jtwc_wp WP031993 6.40000 126.500 25 -1 7 261
1993096N08148 1993 24 WP MM NOT_NAMED 1993-04-13 09:00:00 NR 6.38496 126.158 main 0 0 P_____________ WP031993 6.38496 126.158 22 -1 7 270
1993096N08148 1993 24 WP MM NOT_NAMED 1993-04-13 12:00:00 NR 6.40000 125.800 main 22 0 O_____________ jtwc_wp WP031993 6.40000 125.800 20 -1 8 271
1993096N08148 1993 24 WP MM NOT_NAMED 1993-04-13 15:00:00 NR 6.40000 125.400 main 0 0 P_____________ WP031993 6.40000 125.400 20 -1 8 270
1993096N08148 1993 24 WP MM NOT_NAMED 1993-04-13 18:00:00 NR 6.40000 125.000 main 0 0 O_____________ jtwc_wp WP031993 6.40000 125.000 20 -1 8 270
1993096N08148 1993 24 WP MM NOT_NAMED 1993-04-13 21:00:00 NR 6.39996 124.643 main 0 0 P_____________ WP031993 6.39996 124.643 20 -1 7 270
1993096N08148 1993 24 WP MM NOT_NAMED 1993-04-14 00:00:00 NR 6.40000 124.300 main 0 0 O_____________ jtwc_wp WP031993 6.40000 124.300 20 -1 7 270
1993096N08148 1993 24 WP MM NOT_NAMED 1993-04-14 03:00:00 NR 6.39998 123.950 main 11 11 P_____________ WP031993 6.39998 123.950 20 -1 7 270
1993096N08148 1993 24 WP MM NOT_NAMED 1993-04-14 06:00:00 NR 6.40000 123.600 main 55 55 O_____________ jtwc_wp WP031993 6.40000 123.600 20 -1 7 270
1993096N08148 1993 24 WP MM NOT_NAMED 1993-04-14 09:00:00 NR 6.40005 123.250 main 88 88 P_____________ WP031993 6.40005 123.250 17 -1 7 270
1993096N08148 1993 24 WP MM NOT_NAMED 1993-04-14 12:00:00 NR 6.40000 122.900 main 95 O_____________ jtwc_wp WP031993 6.40000 122.900 15 -1 7 270

デジタル台風データ・検索

IBTrACS Databaseについて

本データベースは、米国NOAAが公開する1842年以降の世界の熱帯低気圧のベストトラックデータアーカイブInternational Best Track Archive for Climate Stewardship (IBTrACS)を、ウェブで閲覧しやすい形式に変換したものです。

最終更新日:2021-10-08